createdAt,value
2023-03-11T00:04:35.177Z,425.2028
2023-03-11T00:09:36.799Z,432.35835
2023-03-11T00:14:38.467Z,423.0084
2023-03-11T00:19:40.092Z,432.0636
2023-03-11T00:24:41.727Z,451.6496
2023-03-11T00:29:43.403Z,500.90935
2023-03-11T00:34:45.054Z,466.7175
2023-03-11T00:39:46.673Z,401.69005
2023-03-11T00:44:48.333Z,345.9574
2023-03-11T00:49:49.938Z,271.0628
2023-03-11T00:54:51.559Z,202.4015
2023-03-11T00:59:53.466Z,166.9185
2023-03-11T01:04:55.105Z,136.28085
2023-03-11T01:09:56.755Z,122.4328
2023-03-11T01:14:58.445Z,115.6698
2023-03-11T01:20:00.068Z,108.9553
2023-03-11T01:25:01.729Z,94.7735
2023-03-11T01:30:03.345Z,83.155
2023-03-11T01:35:04.947Z,59.3095
2023-03-11T01:40:06.688Z,45.3673
2023-03-11T01:45:08.490Z,29.65475
2023-03-11T01:50:10.093Z,16.2659
2023-03-11T01:55:11.664Z,6.17815
2023-03-11T02:00:13.562Z,4.6474
2023-03-11T02:05:15.152Z,0.4148
2023-03-11T02:10:16.907Z,0.88715
2023-03-11T02:15:18.612Z,0
2023-03-11T02:20:20.320Z,0
2023-03-11T02:25:21.939Z,0
2023-03-11T02:30:23.590Z,0
2023-03-11T02:35:25.225Z,0
2023-03-11T02:40:27.000Z,0
2023-03-11T02:45:28.681Z,0
2023-03-11T02:50:30.477Z,0
2023-03-11T02:55:32.175Z,0
2023-03-11T03:00:33.877Z,0
2023-03-11T03:05:35.522Z,0
2023-03-11T03:10:37.408Z,0
2023-03-11T03:15:39.196Z,0
2023-03-11T03:20:40.919Z,0
2023-03-11T03:25:42.554Z,0
2023-03-11T03:30:44.250Z,0
2023-03-11T03:35:45.986Z,0
2023-03-11T03:40:47.676Z,0
2023-03-11T03:45:49.383Z,0
2023-03-11T03:50:51.078Z,0
2023-03-11T03:55:52.909Z,0
2023-03-11T04:00:54.771Z,0
2023-03-11T04:05:56.722Z,0
2023-03-11T04:10:58.360Z,0
2023-03-11T04:16:00.109Z,0
2023-03-11T04:21:01.741Z,0
2023-03-11T04:26:03.421Z,0
2023-03-11T04:31:05.110Z,0
2023-03-11T04:36:06.771Z,0
2023-03-11T04:41:08.895Z,0
2023-03-11T04:46:10.593Z,0
2023-03-11T04:51:12.434Z,0
2023-03-11T04:56:14.129Z,0
2023-03-11T05:01:15.828Z,0
2023-03-11T05:06:17.621Z,0
2023-03-11T05:11:19.340Z,0
2023-03-11T05:16:21.013Z,0
2023-03-11T05:21:22.678Z,0
2023-03-11T05:26:24.590Z,0
2023-03-11T05:31:26.334Z,0
2023-03-11T05:36:27.988Z,0
2023-03-11T05:41:29.748Z,0
2023-03-11T05:46:31.648Z,0
2023-03-11T05:51:33.435Z,0
2023-03-11T05:56:35.205Z,0
2023-03-11T06:01:36.851Z,0
2023-03-11T06:06:38.604Z,0
2023-03-11T06:11:40.387Z,0
2023-03-11T06:16:42.116Z,0
2023-03-11T06:21:43.787Z,0
2023-03-11T06:26:45.380Z,0
2023-03-11T06:31:47.239Z,0
2023-03-11T06:36:48.925Z,0
2023-03-11T06:41:50.542Z,0
2023-03-11T06:46:52.330Z,0
2023-03-11T06:51:53.922Z,0
2023-03-11T06:56:55.495Z,0
2023-03-11T07:01:57.184Z,0
2023-03-11T07:06:58.859Z,0
2023-03-11T07:12:00.550Z,0
2023-03-11T07:17:02.402Z,0
2023-03-11T07:22:04.097Z,0
2023-03-11T07:27:05.784Z,0
2023-03-11T07:32:07.663Z,0
2023-03-11T07:37:09.351Z,0
2023-03-11T07:42:11.169Z,0
2023-03-11T07:47:12.764Z,0
2023-03-11T07:52:14.407Z,0
2023-03-11T07:57:16.057Z,0
2023-03-11T08:02:17.768Z,0
2023-03-11T08:07:19.448Z,0
2023-03-11T08:12:21.052Z,0
2023-03-11T08:17:22.712Z,0
2023-03-11T08:22:24.404Z,0
2023-03-11T08:27:26.019Z,0
2023-03-11T08:32:27.705Z,0
2023-03-11T08:37:29.387Z,0
2023-03-11T08:42:31.100Z,0
2023-03-11T08:47:32.736Z,0
2023-03-11T08:52:34.428Z,0
2023-03-11T08:57:36.075Z,0
2023-03-11T09:02:37.781Z,0
2023-03-11T09:07:39.437Z,0
2023-03-11T09:12:41.264Z,0
2023-03-11T09:17:42.951Z,0
2023-03-11T09:22:44.574Z,0
2023-03-11T09:27:46.379Z,0
2023-03-11T09:32:48.077Z,0
2023-03-11T09:37:49.769Z,0
2023-03-11T09:42:51.354Z,0
2023-03-11T09:47:52.945Z,0
2023-03-11T09:52:54.579Z,0
2023-03-11T09:57:56.200Z,0
2023-03-11T10:02:57.896Z,0
2023-03-11T10:07:59.636Z,0
2023-03-11T10:13:01.270Z,0
2023-03-11T10:18:03.040Z,0
2023-03-11T10:23:04.968Z,0
2023-03-11T10:28:06.665Z,0
2023-03-11T10:33:08.238Z,0
2023-03-11T10:38:09.851Z,0
2023-03-11T10:43:11.672Z,0
2023-03-11T10:48:13.425Z,0
2023-03-11T10:53:15.050Z,0
2023-03-11T10:58:16.771Z,0
2023-03-11T11:03:18.440Z,0
2023-03-11T11:08:20.247Z,0
2023-03-11T11:13:21.969Z,0
2023-03-11T11:18:23.588Z,0
2023-03-11T11:23:25.215Z,0
2023-03-11T11:28:26.819Z,0
2023-03-11T11:33:28.405Z,0
2023-03-11T11:38:30.254Z,0
2023-03-11T11:43:31.992Z,0
2023-03-11T11:48:33.628Z,0
2023-03-11T11:53:35.245Z,0
2023-03-11T11:58:36.843Z,0
2023-03-11T12:03:38.527Z,0
2023-03-11T12:08:40.196Z,0
2023-03-11T12:13:41.897Z,0
2023-03-11T12:18:43.539Z,0
2023-03-11T12:23:45.193Z,0
2023-03-11T12:28:46.813Z,0
2023-03-11T12:33:48.390Z,0
2023-03-11T12:38:49.998Z,0
2023-03-11T12:43:51.602Z,0
2023-03-11T12:48:53.199Z,0
2023-03-11T12:53:54.892Z,0
2023-03-11T12:58:56.499Z,0
2023-03-11T13:03:58.114Z,0
2023-03-11T13:08:59.712Z,0
2023-03-11T13:14:01.359Z,0
2023-03-11T13:19:03.176Z,0
2023-03-11T13:24:04.806Z,0
2023-03-11T13:29:06.445Z,0
2023-03-11T13:34:08.078Z,0
2023-03-11T13:39:09.714Z,0
2023-03-11T13:44:11.300Z,0
2023-03-11T13:49:12.937Z,0.88715
2023-03-11T13:54:14.586Z,1.16185
2023-03-11T13:59:16.240Z,1.3463
2023-03-11T14:04:18.010Z,3.67
2023-03-11T14:09:19.632Z,9.2948
2023-03-11T14:14:21.280Z,13.9422
2023-03-11T14:19:22.890Z,25.1918
2023-03-11T14:24:24.516Z,36.8103
2023-03-11T14:29:26.136Z,45.8655
2023-03-11T14:34:27.793Z,50.45775
2023-03-11T14:39:29.421Z,58.9596
2023-03-11T14:44:31.023Z,78.34215
2023-03-11T14:49:32.635Z,89.35215
2023-03-11T14:54:34.248Z,105.98695
2023-03-11T14:59:35.966Z,124.5214
2023-03-11T15:04:37.537Z,141.7647
2023-03-11T15:09:39.323Z,166.90135
2023-03-11T15:14:40.960Z,185.62025
2023-03-11T15:19:42.649Z,223.9613
2023-03-11T15:24:44.250Z,253.00755
2023-03-11T15:29:45.837Z,259.73905
2023-03-11T15:34:47.453Z,291.109
2023-03-11T15:39:49.086Z,336.7349
2023-03-11T15:44:50.759Z,354.716
2023-03-11T15:49:52.403Z,374.83635
2023-03-11T15:54:56.035Z,370.68715
2023-03-11T15:59:57.970Z,480.41825
2023-03-11T16:04:59.805Z,616.20825
2023-03-11T16:10:03.937Z,702.18515
2023-03-11T16:15:05.953Z,759.66915
2023-03-11T16:20:07.757Z,788.3465
2023-03-11T16:25:09.367Z,911.5406
2023-03-11T16:30:10.985Z,951.5417
2023-03-11T16:35:12.595Z,951.0435
2023-03-11T16:40:14.243Z,937.63565
2023-03-11T16:45:15.931Z,945.58415
2023-03-11T16:50:17.548Z,977.50745
2023-03-11T16:55:19.144Z,970.002
2023-03-11T17:00:20.796Z,1066.7873
2023-03-11T17:05:22.543Z,1278.9475
2023-03-11T17:10:24.230Z,1405.77545
2023-03-11T17:15:25.958Z,1314.4495
2023-03-11T17:20:27.739Z,1289.16455
2023-03-11T17:25:29.383Z,1360.95965
2023-03-11T17:30:37.257Z,1454.9592
2023-03-11T17:35:39.507Z,1499.9766
2023-03-11T17:40:41.252Z,1638.5885
2023-03-11T17:45:42.924Z,1770.91195
2023-03-11T17:50:44.607Z,1923.4109
2023-03-11T17:55:46.256Z,2062.502
2023-03-11T18:00:47.888Z,2287.57185
2023-03-11T18:05:49.544Z,2902.29105
2023-03-11T18:10:51.176Z,3303.83465
2023-03-11T18:15:52.980Z,2968.5318
2023-03-11T18:20:54.596Z,2624.54635
2023-03-11T18:25:56.261Z,1881.8202
2023-03-11T18:30:57.926Z,1574.3883
2023-03-11T18:35:59.600Z,1402.58095
2023-03-11T18:41:01.299Z,1321.7858
2023-03-11T18:46:02.995Z,1104.0578
2023-03-11T18:51:04.638Z,860.82425
2023-03-11T18:56:06.236Z,909.8064
2023-03-11T19:01:07.947Z,1164.8429
2023-03-11T19:06:09.649Z,1175.92705
2023-03-11T19:11:11.405Z,1649.1916
2023-03-11T19:16:13.116Z,1543.79415
2023-03-11T19:21:14.762Z,1366.76705
2023-03-11T19:26:16.454Z,1321.067
2023-03-11T19:31:18.207Z,1334.8799
2023-03-11T19:36:20.004Z,1308.76585
2023-03-11T19:41:21.721Z,1225.46255
2023-03-11T19:46:23.574Z,1258.12365
2023-03-11T19:51:30.372Z,1554.24895
2023-03-11T19:56:34.555Z,1661.98725
2023-03-11T20:01:36.242Z,1648.54325
2023-03-11T20:06:38.113Z,1439.76015
2023-03-11T20:11:39.892Z,1620.8623
2023-03-11T20:16:41.639Z,1679.453
2023-03-11T20:21:45.773Z,1794.51415
2023-03-11T20:26:50.055Z,2076.82655
2023-03-11T20:31:53.127Z,2077.8781
2023-03-11T20:36:54.990Z,1849.8399
2023-03-11T20:41:56.642Z,1584.19845
2023-03-11T20:46:58.364Z,1485.4222
2023-03-11T20:52:00.312Z,1449.0911
2023-03-11T20:57:02.025Z,1586.3567
2023-03-11T21:02:03.757Z,1324.699
2023-03-11T21:07:05.470Z,1348.4532
2023-03-11T21:12:07.175Z,1577.50495
2023-03-11T21:17:08.997Z,1607.95265
2023-03-11T21:22:10.806Z,1485.01715
2023-03-11T21:27:12.633Z,1276.47365
2023-03-11T21:32:14.717Z,1253.79
2023-03-11T21:37:16.530Z,1446.4555
2023-03-11T21:42:18.255Z,1538.72085
2023-03-11T21:47:20.093Z,1588.90285
2023-03-11T21:52:21.777Z,1850.1365
2023-03-11T21:57:23.600Z,1642.32895
2023-03-11T22:02:25.704Z,1513.23245
2023-03-11T22:07:27.315Z,1332.20445
2023-03-11T22:12:29.104Z,1670.1202
2023-03-11T22:17:30.887Z,1507.0733
2023-03-11T22:22:32.782Z,1492.72605
2023-03-11T22:27:34.587Z,1496.78395
2023-03-11T22:32:36.366Z,1488.8906
2023-03-11T22:37:38.070Z,1282.20875
2023-03-11T22:42:39.667Z,1058.22845
2023-03-11T22:47:41.377Z,1038.477
2023-03-11T22:52:43.038Z,1175.29955
2023-03-11T22:57:44.691Z,970.14845
2023-03-11T23:02:46.433Z,934.8689
2023-03-11T23:07:48.364Z,1034.40195
2023-03-11T23:12:50.025Z,1033.44355
2023-03-11T23:17:51.790Z,1015.7572
2023-03-11T23:22:53.488Z,1015.278
2023-03-11T23:27:55.161Z,919.3598
2023-03-11T23:32:56.862Z,847.25095
2023-03-11T23:37:58.626Z,684.18505
2023-03-11T23:43:00.239Z,670.4273
2023-03-11T23:48:01.982Z,638.68845
2023-03-11T23:53:03.567Z,632.80505
2023-03-11T23:58:05.240Z,622.7173
